Time;durP1;ratioP1;P1;durP2;ratioP2;P2;SDS_P1;SDS_P2;PMS_P1;PMS_P2;Temp;Humidity;BMP_temperature;BMP_pressure;BME280_temperature;BME280_humidity;BME280_pressure;Samples;Min_cycle;Max_cycle;Signal;HPM_P1;HPM_P2
2022/03/26 00:02:18;;;;;;;75.63;32.13;;;;;;;21.84;59.68;98219.34;5013363;28;20085;-63
2022/03/26 00:05:08;;;;;;;67.93;31.63;;;;;;;21.92;59.58;98222.16;5009544;28;20052;-63
2022/03/26 00:07:50;;;;;;;88.87;32.37;;;;;;;21.91;60.05;98222.28;5003966;28;20054;-63
2022/03/26 00:10:40;;;;;;;74.57;32.70;;;;;;;21.91;57.15;98235.38;5021464;28;20117;-63
2022/03/26 00:13:22;;;;;;;81.88;33.15;;;;;;;21.82;60.22;98223.88;5016797;28;20061;-64
2022/03/26 00:16:12;;;;;;;73.93;31.27;;;;;;;21.86;60.41;98243.66;5023022;28;20047;-64
2022/03/26 00:18:54;;;;;;;77.03;29.48;;;;;;;21.86;60.35;98242.81;5009816;28;20053;-63
2022/03/26 00:21:45;;;;;;;63.70;28.17;;;;;;;21.83;57.05;98249.13;5011318;28;20053;-63
2022/03/26 00:24:32;;;;;;;;;;;;;;;21.82;57.31;98249.25;5016556;28;20136;-64
2022/03/26 00:27:27;;;;;;;93.38;39.42;;;;;;;21.82;58.35;98262.38;5005638;28;20289;-62
2022/03/26 00:30:04;;;;;;;108.03;43.95;;;;;;;21.76;57.88;98261.09;5020811;28;20088;-64
2022/03/26 00:32:58;;;;;;;124.27;53.43;;;;;;;21.73;54.78;98264.78;5022352;28;20556;-64
2022/03/26 00:35:34;;;;;;;111.40;53.33;;;;;;;21.76;55.67;98269.78;5019656;28;20054;-64
2022/03/26 00:38:22;;;;;;;113.93;53.83;;;;;;;21.75;55.05;98268.13;5020007;28;20365;-63
2022/03/26 00:41:04;;;;;;;119.22;54.40;;;;;;;21.78;56.55;98272.31;5015362;28;20157;-63
2022/03/26 00:43:52;;;;;;;120.13;56.50;;;;;;;21.80;56.13;98280.84;5022073;28;20373;-64
2022/03/26 00:46:41;;;;;;;125.53;54.88;;;;;;;21.78;57.99;98277.53;5010869;28;20057;-64
2022/03/26 00:49:35;;;;;;;120.80;55.47;;;;;;;21.72;57.39;98285.88;5012616;28;20069;-63
2022/03/26 00:52:11;;;;;;;121.03;54.45;;;;;;;21.68;56.74;98276.63;5025427;28;20077;-64
2022/03/26 00:55:00;;;;;;;125.35;57.08;;;;;;;21.70;58.58;98274.72;5011173;28;20049;-64
2022/03/26 00:57:42;;;;;;;132.55;60.08;;;;;;;21.80;58.23;98280.84;5012939;28;20083;-64
2022/03/26 01:00:38;;;;;;;143.15;63.17;;;;;;;21.75;58.69;98283.88;5019592;28;20060;-64
2022/03/26 01:03:15;;;;;;;139.40;60.65;;;;;;;21.70;58.94;98286.03;5022633;28;20637;-63
2022/03/26 01:06:11;;;;;;;140.23;62.58;;;;;;;21.77;58.70;98287.19;5021689;28;20557;-63
2022/03/26 01:08:46;;;;;;;131.35;62.97;;;;;;;21.79;58.07;98294.13;5006038;28;20054;-65
2022/03/26 01:11:35;;;;;;;136.70;60.70;;;;;;;21.75;58.34;98299.59;5017149;28;20056;-62
2022/03/26 01:14:23;;;;;;;134.20;58.75;;;;;;;21.70;57.56;98306.19;5009816;28;20049;-63
2022/03/26 01:17:18;;;;;;;135.73;55.65;;;;;;;21.73;58.06;98304.13;5016151;28;20068;-63
2022/03/26 01:19:56;;;;;;;134.30;56.83;;;;;;;21.71;55.90;98308.66;4997431;28;20077;-64
2022/03/26 01:22:51;;;;;;;124.22;54.78;;;;;;;21.88;59.60;98314.31;5005611;28;20041;-64
2022/03/26 01:25:33;;;;;;;125.55;53.17;;;;;;;21.82;58.32;98318.28;5001222;28;20519;-63
2022/03/26 01:28:22;;;;;;;110.45;51.35;;;;;;;21.86;58.21;98316.25;5028605;28;20072;-63
2022/03/26 01:31:04;;;;;;;114.68;50.53;;;;;;;21.88;60.63;98320.41;5022203;28;20045;-63
2022/03/26 01:33:54;;;;;;;113.93;51.60;;;;;;;21.92;62.74;98316.59;5005247;28;20128;-63
2022/03/26 01:36:48;;;;;;;114.97;51.58;;;;;;;21.88;60.77;98317.78;5012416;28;20050;-64
2022/03/26 01:39:24;;;;;;;111.35;47.58;;;;;;;21.90;60.25;98317.66;5018472;28;20064;-64
2022/03/26 01:42:19;;;;;;;115.35;46.22;;;;;;;22.02;60.81;98324.56;5019142;28;20065;-64
2022/03/26 01:44:55;;;;;;;100.18;42.22;;;;;;;22.06;61.25;98321.53;4997901;28;20321;-64
2022/03/26 01:47:50;;;;;;;100.60;44.45;;;;;;;22.09;58.40;98323.09;5004957;28;20133;-64
2022/03/26 01:50:28;;;;;;;89.22;41.30;;;;;;;22.31;57.85;98322.97;5005274;28;20045;-64
2022/03/26 01:53:17;;;;;;;107.85;40.97;;;;;;;22.58;55.57;98326.88;5007189;28;20140;-63
2022/03/26 01:55:59;;;;;;;97.35;38.88;;;;;;;22.94;54.25;98330.78;5013005;28;20061;-64
2022/03/26 01:58:48;;;;;;;91.45;37.55;;;;;;;23.29;54.53;98333.84;5013607;28;20155;-63
2022/03/26 02:01:35;;;;;;;77.25;35.97;;;;;;;23.58;54.16;98334.75;5009809;28;20150;-64
2022/03/26 02:04:29;;;;;;;98.47;35.13;;;;;;;23.89;53.53;98335.47;5024255;28;20073;-64
2022/03/26 02:07:12;;;;;;;88.15;38.88;;;;;;;24.12;52.58;98340.44;5024586;28;20054;-64
2022/03/26 02:10:06;;;;;;;91.15;36.42;;;;;;;24.29;52.63;98342.41;5018438;28;20069;-64
2022/03/26 02:12:42;;;;;;;91.15;36.60;;;;;;;24.29;51.00;98345.88;5026320;28;20128;-65
2022/03/26 02:15:37;;;;;;;108.35;36.85;;;;;;;24.29;48.68;98359.03;5026657;28;20687;-64
2022/03/26 02:18:12;;;;;;;82.40;34.92;;;;;;;24.49;47.77;98357.22;5018124;28;20048;-65
2022/03/26 02:21:06;;;;;;;115.13;37.08;;;;;;;24.61;50.20;98363.97;5021712;28;20057;-64
2022/03/26 02:23:42;;;;;;;86.20;34.70;;;;;;;24.57;46.24;98372.31;5007548;28;20053;-64
2022/03/26 02:26:38;;;;;;;78.30;35.40;;;;;;;24.61;46.10;98378.97;5029214;28;20104;-64
2022/03/26 02:29:13;;;;;;;76.82;35.58;;;;;;;24.59;46.05;98373.81;5019327;28;20151;-64
2022/03/26 02:32:02;;;;;;;81.25;35.80;;;;;;;24.65;43.49;98370.66;5017709;28;20045;-64
2022/03/26 02:34:44;;;;;;;81.88;35.63;;;;;;;24.65;45.73;98373.28;4975386;28;21604;-65
2022/03/26 02:37:48;;;;;;;77.68;35.83;;;;;;;24.78;45.94;98375.59;5005858;28;20045;-64
2022/03/26 02:40:23;;;;;;;78.30;35.38;;;;;;;24.87;45.42;98384.44;5008623;28;20143;-64
2022/03/26 02:43:19;;;;;;;78.93;36.03;;;;;;;24.95;47.54;98381.97;5017475;28;20048;-63
2022/03/26 02:45:55;;;;;;;88.85;37.95;;;;;;;25.00;43.62;98400.81;5024510;28;20064;-64
2022/03/26 02:48:50;;;;;;;78.22;35.72;;;;;;;25.24;49.67;98392.38;5010032;28;20449;-64
2022/03/26 02:51:26;;;;;;;80.43;33.95;;;;;;;25.28;49.35;98389.34;5014884;28;20041;-64
2022/03/26 02:54:20;;;;;;;91.72;36.47;;;;;;;25.28;44.36;98396.41;5005648;28;20096;-65
2022/03/26 02:56:56;;;;;;;70.85;35.90;;;;;;;25.44;49.68;98393.97;5016569;28;20063;-64
2022/03/26 02:59:45;;;;;;;104.68;37.85;;;;;;;25.36;46.95;98402.63;5002274;28;20053;-64
2022/03/26 03:02:27;;;;;;;83.85;35.30;;;;;;;25.57;48.11;98405.00;5036182;28;20059;-64
2022/03/26 03:05:22;;;;;;;87.20;36.65;;;;;;;25.63;44.75;98415.00;5045093;28;20134;-64
2022/03/26 03:07:58;;;;;;;85.55;38.03;;;;;;;25.66;46.32;98405.97;5045137;28;20041;-64
2022/03/26 03:10:53;;;;;;;92.27;37.20;;;;;;;25.83;47.32;98415.72;5039770;28;20045;-65
2022/03/26 03:13:29;;;;;;;74.15;35.72;;;;;;;25.92;48.99;98415.69;5024740;28;20793;-65
2022/03/26 03:16:24;;;;;;;94.30;36.80;;;;;;;25.95;47.11;98417.16;5019890;28;20057;-64
2022/03/26 03:19:00;;;;;;;78.40;35.10;;;;;;;26.11;48.32;98424.41;5025185;28;20137;-64
2022/03/26 03:21:56;;;;;;;94.80;35.08;;;;;;;26.19;48.09;98422.69;5031375;28;20088;-65
2022/03/26 03:24:32;;;;;;;86.03;35.65;;;;;;;26.27;45.81;98428.09;5036835;28;20065;-64
2022/03/26 03:27:28;;;;;;;87.33;36.90;;;;;;;26.34;45.15;98435.44;5032932;28;20077;-64
2022/03/26 03:30:06;;;;;;;93.68;37.83;;;;;;;26.46;45.49;98439.47;5022588;28;20080;-64
2022/03/26 03:33:01;;;;;;;96.00;37.25;;;;;;;26.54;43.63;98434.28;5004269;28;20061;-65
2022/03/26 03:35:36;;;;;;;93.93;37.72;;;;;;;26.67;46.17;98432.88;5023217;28;20134;-66
2022/03/26 03:38:31;;;;;;;98.40;36.70;;;;;;;26.76;45.04;98441.72;5033439;28;20502;-64
2022/03/26 03:41:07;;;;;;;89.22;36.25;;;;;;;26.88;43.17;98443.13;5043885;28;20057;-64
2022/03/26 03:44:02;;;;;;;84.28;35.50;;;;;;;26.99;45.03;98442.06;5031696;28;20104;-64
2022/03/26 03:46:38;;;;;;;94.88;37.67;;;;;;;27.12;43.37;98441.66;5012559;28;20076;-64
2022/03/26 03:49:31;;;;;;;85.88;36.97;;;;;;;27.28;45.20;98444.41;5045982;28;20056;-64
2022/03/26 03:52:20;;;;;;;86.47;35.90;;;;;;;27.39;45.35;98441.47;5030801;28;20068;-65
2022/03/26 03:55:02;;;;;;;81.95;37.50;;;;;;;27.59;43.38;98455.34;5029320;28;20054;-64
2022/03/26 03:57:51;;;;;;;85.65;38.92;;;;;;;27.74;43.08;98459.88;5028211;28;20773;-65
2022/03/26 04:00:33;;;;;;;89.15;37.78;;;;;;;27.89;42.49;98457.44;5028434;28;20049;-65
2022/03/26 04:03:22;;;;;;;84.75;35.35;;;;;;;28.01;41.21;98456.16;5011234;28;20084;-65
2022/03/26 04:06:05;;;;;;;79.00;35.50;;;;;;;28.26;41.06;98454.38;5012592;28;20405;-65
2022/03/26 04:08:54;;;;;;;78.82;35.78;;;;;;;28.55;42.01;98462.72;5009447;28;20069;-65
2022/03/26 04:11:36;;;;;;;79.88;34.50;;;;;;;28.88;42.87;98463.59;5009275;28;20045;-65
2022/03/26 04:14:26;;;;;;;73.95;32.33;;;;;;;29.16;40.92;98474.63;5008964;28;20137;-65
2022/03/26 04:17:07;;;;;;;80.10;31.73;;;;;;;29.34;40.64;98468.31;5005907;28;20046;-66
2022/03/26 04:19:56;;;;;;;76.97;32.47;;;;;;;29.75;41.01;98474.34;5047426;28;20199;-64
2022/03/26 04:22:50;;;;;;;96.03;33.00;;;;;;;30.01;39.99;98467.75;5043976;28;20470;-64
2022/03/26 04:25:38;;;;;;;83.85;32.63;;;;;;;30.26;40.95;98475.56;5040474;28;20171;-65
2022/03/26 04:28:33;;;;;;;69.65;30.42;;;;;;;30.58;38.28;98474.56;5028175;28;20056;-66
2022/03/26 04:31:09;;;;;;;77.40;31.92;;;;;;;30.65;39.00;98468.34;5027619;28;20532;-66
2022/03/26 04:34:04;;;;;;;81.60;29.90;;;;;;;31.00;39.02;98474.03;5024846;28;20373;-65
2022/03/26 04:36:40;;;;;;;71.28;29.95;;;;;;;31.18;38.32;98470.06;5029278;28;20049;-66
2022/03/26 04:39:35;;;;;;;87.05;29.75;;;;;;;31.30;39.64;98467.78;5008509;28;20049;-65
2022/03/26 04:42:11;;;;;;;81.10;32.13;;;;;;;31.77;37.82;98474.63;5007824;28;20053;-66
2022/03/26 04:45:09;;;;;;;101.53;33.10;;;;;;;32.10;38.04;98475.00;5021654;28;20057;-66
2022/03/26 04:47:44;;;;;;;71.53;31.35;;;;;;;32.27;38.25;98469.28;5016086;28;20369;-67
2022/03/26 04:50:32;;;;;;;67.63;31.30;;;;;;;32.77;40.30;98461.34;5028181;28;20057;-66
2022/03/26 04:53:21;;;;;;;79.13;32.42;;;;;;;33.01;38.56;98460.94;5027990;28;20076;-66
2022/03/26 04:56:03;;;;;;;72.78;28.95;;;;;;;32.47;38.01;98461.47;5027551;28;20045;-66
2022/03/26 04:58:53;;;;;;;79.45;30.40;;;;;;;32.50;38.76;98465.59;5010658;28;20057;-65
2022/03/26 05:01:35;;;;;;;67.03;27.42;;;;;;;32.86;38.32;98454.88;5024884;28;20056;-66
2022/03/26 05:04:24;;;;;;;66.82;27.05;;;;;;;32.97;39.05;98444.47;5026518;28;20049;-66
2022/03/26 05:10:27;;;;;;;53.22;22.90;;;;;;;33.49;38.79;98448.53;5034619;28;20335;-66
2022/03/26 05:13:16;;;;;;;49.58;21.75;;;;;;;33.37;38.76;98452.78;5023355;28;20115;-66
2022/03/26 05:16:04;;;;;;;75.15;22.80;;;;;;;33.75;40.30;98456.72;5028706;28;20049;-66
2022/03/26 05:18:46;;;;;;;58.77;21.77;;;;;;;33.51;36.83;98448.34;5037503;28;20809;-67
2022/03/26 05:21:37;;;;;;;46.08;20.60;;;;;;;33.68;36.95;98447.00;5033972;28;20136;-66
2022/03/26 05:24:19;;;;;;;58.78;19.80;;;;;;;33.34;35.62;98451.34;5025678;28;20540;-66
2022/03/26 05:27:15;;;;;;;52.30;17.67;;;;;;;33.24;35.80;98452.69;5004187;28;20771;-65
2022/03/26 05:30:07;;;;;;;50.00;16.70;;;;;;;33.48;34.87;98444.22;5007144;28;20085;-64
2022/03/26 05:32:57;;;;;;;56.08;16.00;;;;;;;33.58;37.39;98439.34;5011450;28;20060;-64
2022/03/26 05:35:39;;;;;;;42.40;16.98;;;;;;;33.61;35.75;98433.56;5006431;28;20811;-64
2022/03/26 05:38:28;;;;;;;39.83;15.13;;;;;;;33.87;34.34;98443.59;5004671;28;20061;-65
2022/03/26 05:41:10;;;;;;;45.13;15.05;;;;;;;33.84;34.75;98435.16;5002581;28;20077;-69
2022/03/26 05:44:00;;;;;;;41.97;15.45;;;;;;;34.02;34.23;98435.41;5003454;28;20098;-68
2022/03/26 05:46:43;;;;;;;60.40;17.88;;;;;;;34.35;35.45;98425.63;5007493;28;20121;-68
2022/03/26 05:49:32;;;;;;;50.65;16.98;;;;;;;34.33;35.95;98422.34;5005486;28;20083;-69
2022/03/26 05:52:20;;;;;;;43.28;15.18;;;;;;;34.23;33.88;98413.91;5000601;28;20049;-69
2022/03/26 05:55:02;;;;;;;42.37;12.07;;;;;;;34.38;31.85;98413.72;4987508;28;20144;-69
2022/03/26 05:57:57;;;;;;;48.80;14.77;;;;;;;34.36;33.49;98416.59;5005487;28;20617;-67
2022/03/26 06:00:34;;;;;;;43.05;13.88;;;;;;;34.61;34.88;98407.97;5004332;28;20045;-70
2022/03/26 06:03:34;;;;;;;45.97;12.63;;;;;;;34.61;33.75;98407.97;4997677;28;20184;-69
2022/03/26 06:06:10;;;;;;;39.88;13.13;;;;;;;34.14;30.77;98412.41;4987549;28;20042;-69
2022/03/26 06:09:06;;;;;;;37.40;14.25;;;;;;;34.70;34.78;98398.69;5005157;28;20049;-69
2022/03/26 06:11:41;;;;;;;39.08;12.05;;;;;;;34.68;31.83;98395.38;5005002;28;20045;-67
2022/03/26 06:14:38;;;;;;;43.63;12.25;;;;;;;34.63;31.91;98397.88;4993187;28;20840;-68
2022/03/26 06:17:15;;;;;;;44.00;12.18;;;;;;;34.53;32.01;98396.44;5003514;28;20049;-68
2022/03/26 06:20:02;;;;;;;39.53;12.02;;;;;;;35.03;33.89;98404.03;5005809;28;20060;-68
2022/03/26 06:22:50;;;;;;;35.70;10.82;;;;;;;35.21;33.18;98394.28;5002790;28;20042;-69
2022/03/26 06:25:33;;;;;;;40.95;14.00;;;;;;;34.56;32.79;98389.84;5002454;28;20131;-69
2022/03/26 06:28:26;;;;;;;33.83;12.15;;;;;;;34.77;32.57;98380.78;5023792;28;20079;-69
2022/03/26 06:31:22;;;;;;;46.75;13.93;;;;;;;34.88;32.79;98382.84;5023556;28;20053;-69
2022/03/26 06:33:58;;;;;;;47.38;12.65;;;;;;;34.67;30.80;98377.69;5020165;28;20068;-70
2022/03/26 06:36:54;;;;;;;36.33;11.60;;;;;;;34.42;33.14;98361.41;5008160;28;20049;-68
2022/03/26 06:39:29;;;;;;;29.40;10.73;;;;;;;34.52;31.40;98362.66;5022465;28;20404;-67
2022/03/26 06:42:26;;;;;;;35.38;11.73;;;;;;;34.23;33.39;98356.88;5023772;28;20465;-69
2022/03/26 06:45:03;;;;;;;40.15;13.07;;;;;;;34.37;35.23;98348.66;5025988;28;20544;-71
2022/03/26 06:47:58;;;;;;;34.03;10.88;;;;;;;34.62;34.17;98342.69;5026614;28;20053;-69
2022/03/26 06:50:34;;;;;;;34.92;10.18;;;;;;;34.22;32.35;98329.28;5026187;28;20088;-70
2022/03/26 06:53:28;;;;;;;34.97;9.87;;;;;;;34.56;35.45;98321.06;5026365;28;20142;-68
2022/03/26 06:56:07;;;;;;;33.83;11.00;;;;;;;34.45;35.71;98308.31;5001284;28;20052;-67
2022/03/26 06:59:02;;;;;;;49.17;12.90;;;;;;;34.18;34.97;98314.66;5025752;28;20063;-68
2022/03/26 07:01:38;;;;;;;42.05;14.77;;;;;;;34.44;35.09;98309.34;5009361;28;20111;-66
2022/03/26 07:04:33;;;;;;;46.23;13.40;;;;;;;34.35;33.52;98307.09;5019885;28;20076;-67
2022/03/26 07:07:13;;;;;;;43.90;13.20;;;;;;;34.47;35.42;98303.59;5013312;28;20382;-66
2022/03/26 07:10:05;;;;;;;58.05;13.38;;;;;;;34.49;36.71;98289.97;5018307;28;20527;-63
2022/03/26 07:12:54;;;;;;;41.50;13.75;;;;;;;34.60;37.49;98283.19;5023868;28;20381;-66
2022/03/26 07:15:36;;;;;;;33.65;13.38;;;;;;;34.74;35.22;98279.47;5005130;28;20089;-66
2022/03/26 07:18:26;;;;;;;45.83;14.00;;;;;;;34.54;35.28;98274.97;5013294;28;20472;-64
2022/03/26 07:21:11;;;;;;;60.92;11.85;;;;;;;34.23;32.77;98280.16;5021806;28;20453;-63
2022/03/26 07:23:59;;;;;;;44.45;10.77;;;;;;;34.44;32.55;98263.84;5022873;28;20700;-61
2022/03/26 07:26:47;;;;;;;38.83;11.27;;;;;;;34.14;34.86;98267.97;5020582;28;20041;-63
2022/03/26 07:29:43;;;;;;;42.10;11.93;;;;;;;34.28;32.87;98269.63;5021054;28;20041;-65
2022/03/26 07:32:19;;;;;;;33.08;12.57;;;;;;;34.56;35.36;98256.81;5024498;28;20079;-66
2022/03/26 07:35:14;;;;;;;34.37;12.20;;;;;;;34.50;33.88;98246.97;5021186;28;20047;-68
2022/03/26 07:37:50;;;;;;;48.75;11.55;;;;;;;34.50;33.42;98252.31;5026221;28;20310;-63
2022/03/26 07:40:37;;;;;;;36.45;9.52;;;;;;;34.46;33.90;98243.06;5023089;28;20056;-65
2022/03/26 07:43:20;;;;;;;38.65;9.93;;;;;;;34.44;33.48;98246.97;5013809;28;20072;-65
2022/03/26 07:46:18;;;;;;;45.47;10.98;;;;;;;34.40;33.73;98240.41;5022344;28;20049;-65
2022/03/26 07:48:54;;;;;;;48.67;11.32;;;;;;;34.35;34.86;98238.34;5022710;28;20152;-65
2022/03/26 07:51:52;;;;;;;36.55;11.82;;;;;;;34.56;34.80;98234.63;5021547;28;20049;-63
2022/03/26 07:54:28;;;;;;;31.67;10.73;;;;;;;34.46;32.89;98231.53;5034508;28;20045;-65
2022/03/26 07:57:23;;;;;;;37.40;9.98;;;;;;;34.34;31.95;98241.22;5031784;28;20049;-67
2022/03/26 07:59:58;;;;;;;27.48;9.68;;;;;;;34.27;32.12;98235.88;5031196;28;20140;-64
2022/03/26 08:02:53;;;;;;;33.88;10.13;;;;;;;34.53;36.72;98225.16;5032400;28;20110;-65
2022/03/26 08:05:28;;;;;;;40.05;11.50;;;;;;;34.42;33.70;98222.28;5020413;28;20115;-68
2022/03/26 08:08:26;;;;;;;36.10;10.40;;;;;;;34.52;35.54;98214.66;5026588;28;20919;-67
2022/03/26 08:11:01;;;;;;;35.53;10.45;;;;;;;34.51;34.44;98213.81;5025413;28;20073;-66
2022/03/26 08:13:56;;;;;;;;;;;;;;;34.36;33.39;98213.25;5030434;28;20112;-64
2022/03/26 08:16:32;;;;;;;33.05;10.10;;;;;;;34.36;34.30;98197.19;5027736;28;19921;-64
2022/03/26 08:19:28;;;;;;;33.42;9.20;;;;;;;34.31;35.24;98199.69;5015784;28;20041;-64
2022/03/26 08:22:04;;;;;;;38.40;10.30;;;;;;;34.46;34.48;98200.25;5016290;28;20081;-67
2022/03/26 08:24:59;;;;;;;30.40;8.85;;;;;;;34.28;35.10;98189.38;5018824;28;20050;-66
2022/03/26 08:27:41;;;;;;;28.42;9.48;;;;;;;34.31;36.41;98188.97;5025557;28;20053;-65
2022/03/26 08:30:32;;;;;;;46.88;10.48;;;;;;;34.33;36.15;98180.72;5018755;28;20057;-67
2022/03/26 08:33:15;;;;;;;25.17;9.30;;;;;;;34.27;37.66;98170.88;5033380;28;20042;-68
2022/03/26 08:36:03;;;;;;;30.27;9.48;;;;;;;34.33;35.38;98180.72;5027641;28;20647;-67
2022/03/26 08:38:47;;;;;;;43.72;8.63;;;;;;;34.17;34.18;98173.94;5020705;28;20045;-68
2022/03/26 08:41:37;;;;;;;29.05;7.97;;;;;;;34.21;35.44;98175.19;5038558;28;20045;-66
2022/03/26 08:44:19;;;;;;;33.58;8.48;;;;;;;34.16;33.59;98161.63;5027753;28;20052;-67
2022/03/26 08:47:11;;;;;;;23.27;8.60;;;;;;;34.16;35.42;98158.94;5007152;28;20899;-66
2022/03/26 08:49:52;;;;;;;28.77;8.70;;;;;;;34.18;35.47;98156.84;5027215;28;20059;-67
2022/03/26 08:52:41;;;;;;;43.80;8.90;;;;;;;34.06;35.06;98147.84;5029298;28;20872;-66
2022/03/26 08:55:24;;;;;;;35.53;8.60;;;;;;;34.05;35.56;98146.19;5026226;28;20115;-66
2022/03/26 08:58:12;;;;;;;25.42;8.00;;;;;;;34.04;32.54;98155.25;5013406;28;20160;-67
2022/03/26 09:00:57;;;;;;;31.92;8.93;;;;;;;34.02;35.08;98146.59;5025754;28;20713;-65
2022/03/26 09:03:50;;;;;;;38.75;9.50;;;;;;;34.01;32.14;98142.28;5025399;28;20041;-67
2022/03/26 09:06:32;;;;;;;44.50;9.20;;;;;;;34.02;33.68;98134.06;5023359;28;21143;-64
2022/03/26 09:09:21;;;;;;;37.95;9.27;;;;;;;33.96;33.07;98134.06;5030905;28;20045;-67
2022/03/26 09:12:12;;;;;;;30.90;8.23;;;;;;;33.85;31.50;98132.84;5033758;28;20049;-67
2022/03/26 09:14:54;;;;;;;36.47;9.13;;;;;;;33.78;31.67;98130.19;4678957;28;10000428;-69
2022/03/26 09:17:44;;;;;;;33.08;8.50;;;;;;;33.73;31.73;98121.16;5010444;28;20041;-67
2022/03/26 09:20:33;;;;;;;40.03;8.48;;;;;;;33.72;32.35;98125.69;5017406;28;20045;-65
2022/03/26 09:23:23;;;;;;;30.67;8.75;;;;;;;33.78;32.86;98116.00;5017982;28;20049;-66
2022/03/26 09:26:04;;;;;;;41.20;9.20;;;;;;;33.75;30.88;98122.59;5022487;28;20140;-67
2022/03/26 09:28:59;;;;;;;43.13;7.68;;;;;;;33.76;32.24;98116.19;5022915;28;20064;-67
2022/03/26 09:31:35;;;;;;;41.75;8.80;;;;;;;33.74;32.66;98101.41;5001617;28;20708;-67
2022/03/26 09:34:24;;;;;;;36.58;8.18;;;;;;;33.73;32.83;98105.13;5022699;28;20053;-66
2022/03/26 09:37:13;;;;;;;63.28;9.88;;;;;;;33.67;33.77;98105.91;5022417;28;20485;-66
2022/03/26 09:39:55;;;;;;;30.40;8.07;;;;;;;33.52;34.02;98102.66;5014620;28;20053;-67
2022/03/26 09:42:45;;;;;;;27.02;7.40;;;;;;;33.47;33.16;98097.06;5021535;28;20631;-66
2022/03/26 09:45:34;;;;;;;44.70;8.35;;;;;;;33.47;33.53;98100.56;5022143;28;20068;-66
2022/03/26 09:48:25;;;;;;;31.85;8.07;;;;;;;33.48;36.01;98086.19;5027965;28;20037;-66
2022/03/26 09:51:08;;;;;;;;;;;;;;;33.45;35.14;98081.25;5021214;28;20038;-67
2022/03/26 09:54:00;;;;;;;37.17;9.10;;;;;;;33.52;34.83;98092.78;5009702;28;19943;-67
2022/03/26 09:56:45;;;;;;;28.83;8.20;;;;;;;33.54;33.86;98090.69;5008932;28;20042;-66
2022/03/26 09:59:33;;;;;;;30.77;8.45;;;;;;;33.37;33.42;98094.81;5025152;28;20725;-67
2022/03/26 10:02:16;;;;;;;24.67;7.05;;;;;;;33.29;33.75;98087.00;5024668;28;20072;-67
2022/03/26 10:05:05;;;;;;;37.53;8.50;;;;;;;33.38;34.04;98085.78;5019825;28;20067;-66
2022/03/26 10:07:55;;;;;;;24.17;8.32;;;;;;;33.34;33.98;98080.03;5014647;28;20166;-66
2022/03/26 10:10:50;;;;;;;26.60;8.55;;;;;;;33.34;32.15;98095.25;5015557;28;20068;-66
2022/03/26 10:13:43;;;;;;;39.10;11.32;;;;;;;33.31;32.84;98083.09;5024529;28;20409;-65
2022/03/26 10:16:32;;;;;;;47.90;9.55;;;;;;;33.28;33.24;98077.38;5010250;28;20053;-68
2022/03/26 10:19:22;;;;;;;29.08;8.10;;;;;;;33.23;34.10;98077.16;5024248;28;20044;-67
2022/03/26 10:22:11;;;;;;;32.17;7.50;;;;;;;33.13;33.75;98082.84;5017768;28;20109;-66
2022/03/26 10:25:12;;;;;;;24.77;7.28;;;;;;;33.07;34.54;98083.66;5024476;28;20144;-67
2022/03/26 10:27:59;;;;;;;39.38;7.78;;;;;;;33.08;34.67;98079.16;5013249;28;20151;-67
2022/03/26 10:33:55;;;;;;;35.28;8.75;;;;;;;32.96;36.69;98077.09;5029010;28;20046;-65
2022/03/26 10:36:46;;;;;;;27.55;8.05;;;;;;;32.82;36.39;98075.41;5022451;28;20676;-69
2022/03/26 10:39:36;;;;;;;34.63;9.50;;;;;;;32.73;35.87;98070.50;5021985;28;20064;-69
2022/03/26 10:42:18;;;;;;;37.40;9.45;;;;;;;32.74;35.77;98083.59;5014699;28;20061;-68
2022/03/26 10:45:07;;;;;;;26.35;7.82;;;;;;;32.77;34.40;98072.53;5010745;28;20059;-65
2022/03/26 10:47:53;;;;;;;33.13;8.13;;;;;;;32.79;34.50;98075.84;5032325;28;20072;-66
2022/03/26 10:50:46;;;;;;;30.95;8.07;;;;;;;32.81;35.71;98084.44;5016685;28;20098;-64
2022/03/26 10:53:35;;;;;;;32.13;8.70;;;;;;;32.85;34.30;98069.69;5006635;28;20484;-71
2022/03/26 10:56:24;;;;;;;34.67;9.63;;;;;;;32.79;33.48;98061.66;5020478;28;20125;-69
2022/03/26 10:59:06;;;;;;;27.73;9.40;;;;;;;32.76;34.26;98073.56;5019753;28;20729;-69
2022/03/26 11:01:56;;;;;;;38.35;9.93;;;;;;;32.71;34.31;98062.69;5017092;28;20049;-69
2022/03/26 11:04:38;;;;;;;24.33;8.30;;;;;;;32.65;33.94;98071.44;5023945;28;20122;-67
2022/03/26 11:07:27;;;;;;;26.58;7.78;;;;;;;32.59;33.88;98069.59;5027532;28;20045;-73
2022/03/26 11:10:16;;;;;;;29.38;9.40;;;;;;;32.54;35.17;98061.38;5022732;28;20068;-68
2022/03/26 11:13:00;;;;;;;30.17;8.98;;;;;;;32.49;36.28;98059.28;4985863;28;20057;-68
2022/03/26 11:15:54;;;;;;;29.88;8.32;;;;;;;32.44;34.87;98066.25;5023576;28;20049;-68
2022/03/26 11:18:57;;;;;;;31.45;8.77;;;;;;;32.46;35.74;98058.88;5009728;28;20049;-69
2022/03/26 11:22:15;;;;;;;27.63;8.27;;;;;;;32.30;38.17;98060.88;5031551;28;20049;-68
2022/03/26 11:25:19;;;;;;;32.60;7.80;;;;;;;32.29;36.73;98058.41;5028814;28;20080;-69
2022/03/26 11:28:42;;;;;;;26.00;8.25;;;;;;;32.20;38.43;98056.94;5015484;28;20132;-68
2022/03/26 11:31:50;;;;;;;33.25;8.27;;;;;;;32.08;37.10;98050.50;5026709;28;20081;-69
2022/03/26 11:34:39;;;;;;;24.88;10.38;;;;;;;31.98;38.61;98056.19;5018112;28;20135;-68
2022/03/26 11:37:28;;;;;;;35.72;8.95;;;;;;;31.89;38.60;98057.34;5026976;28;20053;-68
2022/03/26 11:40:45;;;;;;;27.95;8.95;;;;;;;31.77;40.06;98043.75;5023228;28;20045;-69
2022/03/26 11:43:49;;;;;;;31.38;9.25;;;;;;;31.69;40.31;98051.09;5023828;28;20549;-70
2022/03/26 11:52:52;;;;;;;29.45;9.90;;;;;;;31.34;40.17;98044.88;5023523;28;20080;-67
2022/03/26 11:55:53;;;;;;;33.35;9.07;;;;;;;31.32;40.79;98050.38;5022302;28;20056;-67
2022/03/26 11:58:35;;;;;;;29.70;10.43;;;;;;;31.24;44.09;98041.72;5031014;28;20054;-67
2022/03/26 12:01:25;;;;;;;29.20;10.13;;;;;;;31.07;44.55;98041.16;5026247;28;20107;-67
2022/03/26 12:04:14;;;;;;;29.38;10.90;;;;;;;30.95;45.77;98040.00;5024529;28;20053;-66
2022/03/26 12:07:04;;;;;;;24.95;9.23;;;;;;;30.76;47.19;98030.81;5017326;28;20049;-66
2022/03/26 12:09:48;;;;;;;25.08;10.00;;;;;;;30.70;46.68;98037.72;5019716;28;20067;-66
2022/03/26 12:13:07;;;;;;;43.30;11.00;;;;;;;30.81;44.34;98047.03;5020944;28;20049;-67
2022/03/26 12:16:01;;;;;;;37.72;11.25;;;;;;;30.83;42.93;98047.66;5027504;28;20061;-67
2022/03/26 12:18:51;;;;;;;32.65;10.70;;;;;;;30.83;43.17;98039.69;5019515;28;20057;-66
2022/03/26 12:21:49;;;;;;;51.80;12.23;;;;;;;30.84;43.96;98045.81;5024795;28;20053;-67
2022/03/26 12:24:38;;;;;;;41.22;13.35;;;;;;;30.86;44.97;98038.47;5022540;28;20060;-67
2022/03/26 12:27:35;;;;;;;52.10;12.52;;;;;;;30.75;43.78;98043.28;5028862;28;22008;-67
2022/03/26 12:30:13;;;;;;;48.17;13.23;;;;;;;30.80;44.17;98040.06;5006931;28;20051;-64
2022/03/26 12:33:07;;;;;;;51.53;16.40;;;;;;;30.80;44.44;98045.41;5029854;28;20589;-66
2022/03/26 12:35:53;;;;;;;56.03;18.08;;;;;;;30.72;43.91;98043.69;5001389;28;20137;-67
2022/03/26 12:38:50;;;;;;;63.25;19.98;;;;;;;30.67;44.30;98043.41;5030817;28;20088;-66
2022/03/26 12:41:38;;;;;;;48.55;20.48;;;;;;;30.66;44.45;98041.75;5018565;28;20045;-67
2022/03/26 12:44:22;;;;;;;57.35;20.65;;;;;;;30.57;45.27;98044.75;5032844;28;20576;-67
2022/03/26 12:47:11;;;;;;;56.83;20.63;;;;;;;30.50;45.03;98044.63;5031260;28;20111;-67
2022/03/26 12:49:58;;;;;;;68.53;21.30;;;;;;;30.45;45.36;98047.03;5032818;28;20059;-69
2022/03/26 12:52:46;;;;;;;;;;;;;;;30.47;44.95;98050.34;5044393;28;20076;-70
2022/03/26 12:55:35;;;;;;;52.85;18.15;;;;;;;30.38;45.04;98046.13;5044201;28;19925;-69
2022/03/26 13:01:26;;;;;;;45.88;15.48;;;;;;;30.21;47.06;98060.63;5035295;28;20053;-69
2022/03/26 13:04:08;;;;;;;52.55;16.77;;;;;;;30.15;46.23;98053.41;5029482;28;20049;-66
2022/03/26 13:06:57;;;;;;;47.67;15.00;;;;;;;30.13;46.66;98061.56;5026919;28;20049;-67
2022/03/26 13:09:41;;;;;;;44.28;14.20;;;;;;;30.01;47.98;98060.41;5023305;28;20164;-68